Airfield :
LOGIN :

Register | Disclaimer

   EN    FR    IT 

 










Legend :    VFR   Marginal VFR   IFR   Intensive IFR   Very Intensive IFR
Visi :
Ceiling :
>= 8 km
>= 3000ft
5 to 8 km
1000 to 3000 ft
1500m to 5 km
500 to 1000 ft
800 to 1500m
200 to 500 ft
< 800m
< 200 ft
Symbols :   Thunderstorms  Fog  Heavy snow  Heavy precipitations  Wind > 20 kt
SIGMETs :     Misc.  Thunderstorms  Icing  Turbulence  Mountain Waves  Volcanic Ashes







- Airport Elevation : 1947 ft
- IATA code : OBF


EDMO - Oberpfaffenhofen

CURRENT METAR :
  • 120720Z 23007KT 3000 -SN BKN008 M01/M02 Q1021 RESN

EXPIRED METARs :
  • 120650Z 24007KT 1500 SN BKN009 M01/M02 Q1021
  • 120620Z 22006KT 2000 -SN BKN014 M01/M02 Q1021
  • 120550Z 24007KT 3500 -SN SCT015 BKN025 M01/M02 Q1021

TAF TAF EDMO
Valid from the 12 at 07:00 until the 12 at 15:00 UTC


120636Z 1207/1215 22006KT 9999 BKN012
TEMPO 1207/1210 2500 -SN BR BKN004
BECMG 1210/1212 BKN020
PROB30
TEMPO 1210/1215 4000 -SN BKN012
No reported NOTAMs for that airfield.



MET'MAP, your aeronautical weather chart ! - Copyright ORBIFLY December 2007 - Disclaimer

ORBIFLY MET'MAP TEAM :

Programming & Development : Alexandra Zaïnal
Concept & Development : Baudouin d'Aumeries
Co-Development & Prog : Marc-Olivier Méhu
Technical & hardware support : Manuel Goepfert

Contact : metmap@orbifly.com




SOURCES & CREDITS :

   NOAA